createdAt,value
2023-01-28T00:00:03.770Z,984.63
2023-01-28T00:01:03.733Z,984.66
2023-01-28T00:02:03.734Z,984.57
2023-01-28T00:03:03.668Z,984.74
2023-01-28T00:04:04.220Z,984.66
2023-01-28T00:05:03.803Z,984.63
2023-01-28T00:06:03.614Z,984.71
2023-01-28T00:07:03.540Z,984.71
2023-01-28T00:08:03.433Z,984.68
2023-01-28T00:09:03.442Z,984.77
2023-01-28T00:10:03.440Z,984.71
2023-01-28T00:11:03.413Z,984.77
2023-01-28T00:12:03.253Z,984.81
2023-01-28T00:13:03.193Z,984.71
2023-01-28T00:14:03.107Z,984.77
2023-01-28T00:15:03.028Z,984.71
2023-01-28T00:16:03.018Z,984.63
2023-01-28T00:17:03.011Z,984.71
2023-01-28T00:18:03.162Z,984.74
2023-01-28T00:19:03.025Z,984.77
2023-01-28T00:20:03.057Z,984.68
2023-01-28T00:21:02.913Z,984.81
2023-01-28T00:22:03.888Z,984.71
2023-01-28T00:23:02.887Z,984.68
2023-01-28T00:24:03.967Z,984.63
2023-01-28T00:25:03.815Z,984.71
2023-01-28T00:26:03.863Z,984.63
2023-01-28T00:27:03.753Z,984.68
2023-01-28T00:28:03.791Z,984.68
2023-01-28T00:29:03.729Z,984.66
2023-01-28T00:30:03.719Z,984.66
2023-01-28T00:31:03.716Z,984.66
2023-01-28T00:32:03.708Z,984.60
2023-01-28T00:33:03.507Z,984.43
2023-01-28T00:34:03.460Z,984.71
2023-01-28T00:35:03.462Z,984.71
2023-01-28T00:36:03.323Z,984.54
2023-01-28T00:37:03.292Z,984.60
2023-01-28T00:38:03.164Z,984.68
2023-01-28T00:39:03.167Z,984.60
2023-01-28T00:40:03.196Z,984.68
2023-01-28T00:41:03.042Z,984.60
2023-01-28T00:42:03.022Z,984.49
2023-01-28T00:43:03.074Z,984.52
2023-01-28T00:44:03.011Z,984.43
2023-01-28T00:45:03.084Z,984.60
2023-01-28T00:46:03.204Z,984.63
2023-01-28T00:47:03.024Z,984.54
2023-01-28T00:48:02.875Z,984.46
2023-01-28T00:49:02.878Z,984.66
2023-01-28T00:50:03.819Z,984.66
2023-01-28T00:51:03.913Z,984.52
2023-01-28T00:52:03.705Z,984.66
2023-01-28T00:53:03.637Z,984.71
2023-01-28T00:54:03.631Z,984.60
2023-01-28T00:55:03.557Z,984.79
2023-01-28T00:56:03.563Z,984.66
2023-01-28T00:57:03.598Z,984.63
2023-01-28T00:58:03.592Z,984.52
2023-01-28T00:59:03.505Z,984.60
2023-01-28T01:00:03.546Z,984.43
2023-01-28T01:01:03.463Z,984.60
2023-01-28T01:02:03.325Z,984.60
2023-01-28T01:03:03.480Z,984.63
2023-01-28T01:04:03.732Z,984.71
2023-01-28T01:05:03.252Z,984.46
2023-01-28T01:06:03.094Z,984.60
2023-01-28T01:07:03.020Z,984.57
2023-01-28T01:08:02.966Z,984.57
2023-01-28T01:09:04.867Z,984.81
2023-01-28T01:10:03.999Z,984.60
2023-01-28T01:11:03.077Z,984.57
2023-01-28T01:12:03.035Z,984.63
2023-01-28T01:13:02.950Z,984.66
2023-01-28T01:14:03.920Z,984.60
2023-01-28T01:15:03.747Z,984.77
2023-01-28T01:16:03.465Z,984.66
2023-01-28T01:17:03.283Z,984.81
2023-01-28T01:18:03.272Z,984.60
2023-01-28T01:19:03.128Z,984.71
2023-01-28T01:20:03.182Z,984.71
2023-01-28T01:21:02.995Z,984.77
2023-01-28T01:22:02.932Z,984.77
2023-01-28T01:23:03.803Z,984.87
2023-01-28T01:24:03.888Z,984.63
2023-01-28T01:25:03.740Z,984.74
2023-01-28T01:26:03.725Z,984.74
2023-01-28T01:27:03.643Z,984.74
2023-01-28T01:28:03.690Z,984.93
2023-01-28T01:29:03.785Z,984.96
2023-01-28T01:30:03.598Z,984.93
2023-01-28T01:31:03.833Z,984.87
2023-01-28T01:32:03.697Z,984.84
2023-01-28T01:33:03.702Z,984.84
2023-01-28T01:34:03.579Z,984.82
2023-01-28T01:35:03.605Z,984.93
2023-01-28T01:36:03.501Z,984.79
2023-01-28T01:37:03.384Z,984.98
2023-01-28T01:38:03.369Z,984.74
2023-01-28T01:39:03.251Z,984.87
2023-01-28T01:40:03.256Z,984.79
2023-01-28T01:41:03.148Z,984.72
2023-01-28T01:42:03.014Z,984.93
2023-01-28T01:43:03.049Z,984.85
2023-01-28T01:44:03.052Z,984.99
2023-01-28T01:45:02.976Z,984.87
2023-01-28T01:46:03.896Z,984.85
2023-01-28T01:47:03.700Z,984.87
2023-01-28T01:48:03.747Z,984.77
2023-01-28T01:49:03.623Z,984.69
2023-01-28T01:50:03.462Z,984.79
2023-01-28T01:51:03.355Z,984.82
2023-01-28T01:52:03.247Z,984.82
2023-01-28T01:53:03.068Z,984.88
2023-01-28T01:54:03.023Z,984.88
2023-01-28T01:55:03.098Z,984.85
2023-01-28T01:56:03.029Z,984.77
2023-01-28T01:57:03.883Z,984.75
2023-01-28T01:58:03.772Z,984.85
2023-01-28T01:59:03.709Z,984.82
2023-01-28T02:00:03.680Z,984.79
2023-01-28T02:01:03.548Z,984.69
2023-01-28T02:02:03.673Z,984.82
2023-01-28T02:03:03.496Z,984.85
2023-01-28T02:04:03.315Z,984.85
2023-01-28T02:05:03.246Z,984.88
2023-01-28T02:06:03.158Z,984.72
2023-01-28T02:07:03.228Z,984.82
2023-01-28T02:08:02.928Z,984.93
2023-01-28T02:09:02.916Z,984.88
2023-01-28T02:10:03.873Z,984.93
2023-01-28T02:11:03.733Z,985.02
2023-01-28T02:12:03.699Z,985.05
2023-01-28T02:13:02.906Z,984.99
2023-01-28T02:14:02.873Z,984.91
2023-01-28T02:15:03.869Z,984.91
2023-01-28T02:16:03.817Z,985.02
2023-01-28T02:17:03.824Z,984.91
2023-01-28T02:18:03.714Z,985.07
2023-01-28T02:19:03.751Z,984.99
2023-01-28T02:20:03.758Z,985.13
2023-01-28T02:21:03.560Z,985.07
2023-01-28T02:22:03.574Z,984.96
2023-01-28T02:23:03.483Z,984.96
2023-01-28T02:24:03.552Z,985.13
2023-01-28T02:25:03.331Z,985.05
2023-01-28T02:26:03.228Z,984.96
2023-01-28T02:27:03.109Z,985.07
2023-01-28T02:28:03.065Z,985.02
2023-01-28T02:29:02.953Z,985.16
2023-01-28T02:30:03.800Z,985.05
2023-01-28T02:31:04.060Z,985.10
2023-01-28T02:32:03.833Z,985.16
2023-01-28T02:33:03.774Z,985.07
2023-01-28T02:34:03.720Z,985.02
2023-01-28T02:35:03.549Z,985.10
2023-01-28T02:36:03.500Z,985.10
2023-01-28T02:37:03.448Z,984.96
2023-01-28T02:38:03.408Z,984.91
2023-01-28T02:39:03.317Z,985.10
2023-01-28T02:40:03.216Z,985.13
2023-01-28T02:41:03.122Z,985.02
2023-01-28T02:42:02.947Z,985.40
2023-01-28T02:43:03.013Z,985.07
2023-01-28T02:44:02.914Z,985.13
2023-01-28T02:45:03.787Z,985.16
2023-01-28T02:46:03.769Z,985.13
2023-01-28T02:47:03.642Z,985.10
2023-01-28T02:48:03.631Z,985.16
2023-01-28T02:49:03.676Z,985.19
2023-01-28T02:50:03.554Z,985.07
2023-01-28T02:51:03.400Z,985.05
2023-01-28T02:52:03.369Z,985.02
2023-01-28T02:53:03.303Z,985.02
2023-01-28T02:54:03.211Z,985.27
2023-01-28T02:55:03.268Z,985.16
2023-01-28T02:56:03.493Z,985.21
2023-01-28T02:57:04.776Z,985.16
2023-01-28T02:58:03.760Z,985.16
2023-01-28T02:59:03.786Z,984.96
2023-01-28T03:00:03.672Z,985.07
2023-01-28T03:01:03.699Z,985.27
2023-01-28T03:02:03.550Z,985.07
2023-01-28T03:03:03.584Z,985.13
2023-01-28T03:04:03.454Z,985.19
2023-01-28T03:05:03.351Z,984.94
2023-01-28T03:06:03.475Z,985.13
2023-01-28T03:07:03.345Z,985.05
2023-01-28T03:08:03.281Z,985.24
2023-01-28T03:09:03.195Z,985.19
2023-01-28T03:10:03.221Z,985.21
2023-01-28T03:11:03.121Z,985.10
2023-01-28T03:12:03.158Z,985.16
2023-01-28T03:13:03.069Z,985.07
2023-01-28T03:14:03.073Z,985.13
2023-01-28T03:15:02.988Z,985.07
2023-01-28T03:16:03.986Z,985.19
2023-01-28T03:17:03.928Z,985.07
2023-01-28T03:18:04.136Z,985.05
2023-01-28T03:19:03.812Z,985.21
2023-01-28T03:20:03.849Z,985.19
2023-01-28T03:21:04.264Z,985.19
2023-01-28T03:22:03.656Z,985.16
2023-01-28T03:23:04.262Z,985.19
2023-01-28T03:24:03.549Z,985.27
2023-01-28T03:25:03.400Z,985.13
2023-01-28T03:26:03.272Z,985.10
2023-01-28T03:27:03.197Z,985.19
2023-01-28T03:28:03.128Z,985.13
2023-01-28T03:29:03.014Z,985.13
2023-01-28T03:30:02.929Z,985.19
2023-01-28T03:31:02.906Z,985.16
2023-01-28T03:32:03.948Z,985.24
2023-01-28T03:33:03.886Z,985.30
2023-01-28T03:34:03.796Z,985.24
2023-01-28T03:35:03.664Z,985.19
2023-01-28T03:36:03.834Z,985.19
2023-01-28T03:37:03.415Z,985.13
2023-01-28T03:38:03.376Z,985.30
2023-01-28T03:39:03.266Z,985.30
2023-01-28T03:40:03.373Z,985.10
2023-01-28T03:41:03.279Z,985.43
2023-01-28T03:42:03.166Z,985.27
2023-01-28T03:43:03.128Z,985.21
2023-01-28T03:44:03.092Z,985.49
2023-01-28T03:45:03.117Z,985.27
2023-01-28T03:46:03.130Z,985.40
2023-01-28T03:47:03.855Z,985.19
2023-01-28T03:48:03.826Z,985.46
2023-01-28T03:49:03.654Z,985.40
2023-01-28T03:50:03.593Z,985.40
2023-01-28T03:51:03.534Z,985.30
2023-01-28T03:52:03.425Z,985.22
2023-01-28T03:53:03.471Z,985.27
2023-01-28T03:54:03.371Z,985.30
2023-01-28T03:55:03.379Z,985.16
2023-01-28T03:56:03.489Z,985.27
2023-01-28T03:57:03.318Z,985.43
2023-01-28T03:58:03.212Z,985.35
2023-01-28T03:59:03.272Z,985.40
2023-01-28T04:00:03.134Z,985.40
2023-01-28T04:01:03.095Z,985.51
2023-01-28T04:02:03.171Z,985.43
2023-01-28T04:03:03.125Z,985.46
2023-01-28T04:04:02.986Z,985.46
2023-01-28T04:05:03.838Z,985.40
2023-01-28T04:06:02.866Z,985.40
2023-01-28T04:07:03.786Z,985.49
2023-01-28T04:08:03.785Z,985.46
2023-01-28T04:09:03.683Z,985.51
2023-01-28T04:10:03.646Z,985.46
2023-01-28T04:11:03.594Z,985.60
2023-01-28T04:12:03.523Z,985.57
2023-01-28T04:13:03.403Z,985.57
2023-01-28T04:14:03.430Z,985.57
2023-01-28T04:15:03.460Z,985.52
2023-01-28T04:16:03.667Z,985.46
2023-01-28T04:17:03.431Z,985.49
2023-01-28T04:18:03.343Z,985.66
2023-01-28T04:19:03.509Z,985.49
2023-01-28T04:20:03.373Z,985.52
2023-01-28T04:21:03.302Z,985.63
2023-01-28T04:22:03.177Z,985.46
2023-01-28T04:23:03.214Z,985.46
2023-01-28T04:24:03.292Z,985.55
2023-01-28T04:25:03.275Z,985.49
2023-01-28T04:26:03.133Z,985.60
2023-01-28T04:27:03.158Z,985.63
2023-01-28T04:28:03.070Z,985.60
2023-01-28T04:29:02.958Z,985.41
2023-01-28T04:30:02.955Z,985.52
2023-01-28T04:31:03.332Z,985.57
2023-01-28T04:32:03.096Z,985.66
2023-01-28T04:33:03.826Z,985.52
2023-01-28T04:34:03.799Z,985.58
2023-01-28T04:35:03.886Z,985.71
2023-01-28T04:36:03.776Z,985.69
2023-01-28T04:37:03.625Z,985.52
2023-01-28T04:38:03.625Z,985.60
2023-01-28T04:39:03.736Z,985.60
2023-01-28T04:40:03.782Z,985.69
2023-01-28T04:41:03.734Z,985.69
2023-01-28T04:42:03.599Z,985.60
2023-01-28T04:43:03.584Z,985.55
2023-01-28T04:44:03.591Z,985.66
2023-01-28T04:45:03.847Z,985.52
2023-01-28T04:46:03.858Z,985.66
2023-01-28T04:47:03.759Z,985.77
2023-01-28T04:48:03.736Z,985.69
2023-01-28T04:49:03.685Z,985.55
2023-01-28T04:50:03.761Z,985.69
2023-01-28T04:51:03.666Z,985.77
2023-01-28T04:52:03.587Z,985.66
2023-01-28T04:53:03.456Z,985.55
2023-01-28T04:54:03.394Z,985.83
2023-01-28T04:55:03.432Z,985.77
2023-01-28T04:56:03.373Z,985.69
2023-01-28T04:57:03.297Z,985.77
2023-01-28T04:58:03.257Z,985.80
2023-01-28T04:59:03.224Z,985.75
2023-01-28T05:00:03.165Z,985.75
2023-01-28T05:01:03.149Z,985.91
2023-01-28T05:02:03.170Z,985.89
2023-01-28T05:03:03.111Z,985.78
2023-01-28T05:04:02.952Z,985.72
2023-01-28T05:05:03.862Z,985.66
2023-01-28T05:06:03.731Z,985.86
2023-01-28T05:07:03.722Z,985.80
2023-01-28T05:08:03.682Z,985.75
2023-01-28T05:09:03.564Z,985.75
2023-01-28T05:10:03.530Z,985.91
2023-01-28T05:11:03.317Z,985.89
2023-01-28T05:12:03.236Z,985.83
2023-01-28T05:13:03.188Z,985.89
2023-01-28T05:14:03.143Z,985.89
2023-01-28T05:15:02.971Z,986.11
2023-01-28T05:16:02.902Z,985.97
2023-01-28T05:17:03.951Z,986.03
2023-01-28T05:18:03.864Z,985.89
2023-01-28T05:19:04.042Z,985.94
2023-01-28T05:20:03.736Z,985.97
2023-01-28T05:21:03.739Z,985.86
2023-01-28T05:22:03.684Z,985.89
2023-01-28T05:23:03.645Z,986.00
2023-01-28T05:24:03.716Z,986.00
2023-01-28T05:25:03.765Z,985.97
2023-01-28T05:26:03.928Z,985.86
2023-01-28T05:27:03.769Z,985.92
2023-01-28T05:28:03.662Z,985.92
2023-01-28T05:29:03.578Z,985.92
2023-01-28T05:30:03.510Z,986.00
2023-01-28T05:31:03.490Z,985.94
2023-01-28T05:32:03.350Z,985.89
2023-01-28T05:33:03.239Z,985.91
2023-01-28T05:34:03.100Z,985.89
2023-01-28T05:35:03.013Z,985.83
2023-01-28T05:36:03.855Z,985.97
2023-01-28T05:37:03.759Z,986.00
2023-01-28T05:38:03.708Z,986.00
2023-01-28T05:39:03.725Z,985.92
2023-01-28T05:40:03.522Z,985.94
2023-01-28T05:41:03.555Z,986.00
2023-01-28T05:42:03.387Z,985.86
2023-01-28T05:43:03.408Z,985.92
2023-01-28T05:44:03.293Z,986.03
2023-01-28T05:45:03.356Z,986.06
2023-01-28T05:46:03.321Z,986.05
2023-01-28T05:47:03.119Z,986.00
2023-01-28T05:48:03.150Z,986.06
2023-01-28T05:49:03.372Z,986.00
2023-01-28T05:50:03.238Z,985.97
2023-01-28T05:51:03.162Z,986.11
2023-01-28T05:52:03.047Z,986.14
2023-01-28T05:53:02.907Z,986.11
2023-01-28T05:54:03.881Z,986.06
2023-01-28T05:55:03.930Z,986.11
2023-01-28T05:56:03.805Z,986.17
2023-01-28T05:57:03.793Z,986.08
2023-01-28T05:58:03.751Z,986.08
2023-01-28T05:59:03.730Z,986.03
2023-01-28T06:00:03.630Z,985.97
2023-01-28T06:01:03.601Z,986.17
2023-01-28T06:02:03.580Z,986.08
2023-01-28T06:03:03.486Z,986.17
2023-01-28T06:04:03.426Z,986.08
2023-01-28T06:05:03.500Z,986.11
2023-01-28T06:06:03.418Z,986.11
2023-01-28T06:07:03.386Z,986.14
2023-01-28T06:08:03.249Z,986.14
2023-01-28T06:09:03.290Z,986.39
2023-01-28T06:10:03.193Z,986.25
2023-01-28T06:11:03.069Z,986.34
2023-01-28T06:12:03.046Z,986.28
2023-01-28T06:13:03.073Z,986.48
2023-01-28T06:14:03.037Z,986.31
2023-01-28T06:15:03.061Z,986.50
2023-01-28T06:16:03.064Z,986.42
2023-01-28T06:17:03.868Z,986.53
2023-01-28T06:18:02.943Z,986.42
2023-01-28T06:19:02.930Z,986.45
2023-01-28T06:20:02.937Z,986.34
2023-01-28T06:21:02.891Z,986.58
2023-01-28T06:22:02.961Z,986.31
2023-01-28T06:23:02.966Z,986.61
2023-01-28T06:24:03.898Z,986.50
2023-01-28T06:25:03.708Z,986.48
2023-01-28T06:26:03.711Z,986.50
2023-01-28T06:27:03.679Z,986.42
2023-01-28T06:28:03.535Z,986.37
2023-01-28T06:29:03.493Z,986.48
2023-01-28T06:30:03.346Z,986.48
2023-01-28T06:31:03.466Z,986.63
2023-01-28T06:32:03.372Z,986.51
2023-01-28T06:33:03.179Z,986.56
2023-01-28T06:34:03.108Z,986.69
2023-01-28T06:35:02.915Z,986.75
2023-01-28T06:36:02.940Z,986.63
2023-01-28T06:37:03.835Z,986.61
2023-01-28T06:38:03.767Z,986.61
2023-01-28T06:39:03.582Z,986.66
2023-01-28T06:40:03.658Z,986.64
2023-01-28T06:41:03.549Z,986.58
2023-01-28T06:42:03.499Z,986.58
2023-01-28T06:43:03.516Z,986.58
2023-01-28T06:44:03.420Z,986.69
2023-01-28T06:45:03.401Z,986.69
2023-01-28T06:46:03.350Z,986.48
2023-01-28T06:47:03.189Z,986.42
2023-01-28T06:48:04.532Z,986.72
2023-01-28T06:49:03.119Z,986.75
2023-01-28T06:50:03.049Z,986.67
2023-01-28T06:51:03.005Z,986.64
2023-01-28T06:52:02.855Z,986.64
2023-01-28T06:53:02.891Z,986.56
2023-01-28T06:54:03.852Z,986.58
2023-01-28T06:55:03.825Z,986.72
2023-01-28T06:56:03.698Z,986.78
2023-01-28T06:57:03.615Z,986.83
2023-01-28T06:58:03.544Z,986.58
2023-01-28T06:59:03.502Z,986.61
2023-01-28T07:00:03.530Z,986.69
2023-01-28T07:01:03.070Z,986.81
2023-01-28T07:02:03.100Z,986.64
2023-01-28T07:03:03.175Z,986.94
2023-01-28T07:04:03.029Z,986.75
2023-01-28T07:05:02.881Z,986.61
2023-01-28T07:06:03.939Z,986.78
2023-01-28T07:07:03.740Z,986.89
2023-01-28T07:08:03.675Z,986.69
2023-01-28T07:09:03.621Z,986.81
2023-01-28T07:10:03.577Z,986.78
2023-01-28T07:11:03.504Z,986.78
2023-01-28T07:12:03.440Z,986.83
2023-01-28T07:13:03.366Z,986.70
2023-01-28T07:14:03.268Z,986.72
2023-01-28T07:15:03.326Z,986.70
2023-01-28T07:16:03.240Z,986.89
2023-01-28T07:17:03.335Z,986.72
2023-01-28T07:18:03.479Z,986.72
2023-01-28T07:19:02.998Z,986.81
2023-01-28T07:20:03.061Z,986.72
2023-01-28T07:21:02.917Z,986.72
2023-01-28T07:22:03.896Z,987.06
2023-01-28T07:23:03.789Z,986.89
2023-01-28T07:24:04.377Z,986.89
2023-01-28T07:25:03.755Z,986.78
2023-01-28T07:26:03.778Z,986.86
2023-01-28T07:27:03.666Z,986.95
2023-01-28T07:28:03.631Z,986.92
2023-01-28T07:29:03.588Z,986.92
2023-01-28T07:30:03.471Z,986.89
2023-01-28T07:31:03.624Z,986.83
2023-01-28T07:32:03.453Z,986.95
2023-01-28T07:33:03.145Z,987.00
2023-01-28T07:34:03.001Z,986.92
2023-01-28T07:35:02.954Z,986.83
2023-01-28T07:36:03.820Z,986.86
2023-01-28T07:37:03.758Z,986.92
2023-01-28T07:38:03.727Z,986.86
2023-01-28T07:39:03.626Z,986.81
2023-01-28T07:40:03.562Z,986.81
2023-01-28T07:41:03.555Z,986.78
2023-01-28T07:42:03.444Z,986.81
2023-01-28T07:43:03.457Z,986.81
2023-01-28T07:44:03.391Z,986.89
2023-01-28T07:45:03.233Z,986.83
2023-01-28T07:46:03.211Z,986.75
2023-01-28T07:47:03.180Z,986.97
2023-01-28T07:48:03.097Z,986.92
2023-01-28T07:49:03.033Z,986.97
2023-01-28T07:50:03.863Z,986.72
2023-01-28T07:51:03.779Z,986.81
2023-01-28T07:52:03.849Z,986.78
2023-01-28T07:53:03.713Z,986.92
2023-01-28T07:54:03.733Z,986.84
2023-01-28T07:55:03.712Z,986.84
2023-01-28T07:56:03.583Z,986.95
2023-01-28T07:57:03.630Z,986.89
2023-01-28T07:58:03.345Z,986.92
2023-01-28T07:59:03.249Z,986.97
2023-01-28T08:00:03.222Z,986.89
2023-01-28T08:01:03.321Z,987.00
2023-01-28T08:02:03.274Z,986.92
2023-01-28T08:03:03.177Z,986.86
2023-01-28T08:04:03.391Z,987.00
2023-01-28T08:05:03.548Z,987.03
2023-01-28T08:06:03.131Z,986.98
2023-01-28T08:07:03.249Z,986.86
2023-01-28T08:08:03.075Z,986.89
2023-01-28T08:09:03.194Z,986.89
2023-01-28T08:10:03.283Z,987.06
2023-01-28T08:11:03.251Z,986.98
2023-01-28T08:12:03.624Z,987.03
2023-01-28T08:13:03.574Z,987.03
2023-01-28T08:14:03.556Z,987.03
2023-01-28T08:15:03.398Z,987.06
2023-01-28T08:16:03.482Z,987.12
2023-01-28T08:17:03.307Z,987.14
2023-01-28T08:18:03.204Z,987.06
2023-01-28T08:19:03.217Z,987.12
2023-01-28T08:20:03.154Z,987.20
2023-01-28T08:21:03.086Z,987.20
2023-01-28T08:22:03.019Z,987.31
2023-01-28T08:23:03.025Z,987.26
2023-01-28T08:24:02.985Z,987.20
2023-01-28T08:25:03.895Z,987.20
2023-01-28T08:26:03.865Z,987.28
2023-01-28T08:27:03.781Z,987.14
2023-01-28T08:28:03.682Z,987.12
2023-01-28T08:29:03.521Z,987.34
2023-01-28T08:30:03.584Z,987.25
2023-01-28T08:31:03.930Z,987.37
2023-01-28T08:32:03.364Z,987.42
2023-01-28T08:33:03.295Z,987.36
2023-01-28T08:34:03.201Z,987.31
2023-01-28T08:35:03.281Z,987.28
2023-01-28T08:36:03.293Z,987.31
2023-01-28T08:37:03.348Z,987.31
2023-01-28T08:38:03.267Z,987.25
2023-01-28T08:39:03.177Z,987.25
2023-01-28T08:40:03.136Z,987.42
2023-01-28T08:41:03.064Z,987.22
2023-01-28T08:42:03.082Z,987.39
2023-01-28T08:43:03.100Z,987.33
2023-01-28T08:44:02.983Z,987.20
2023-01-28T08:45:02.982Z,987.36
2023-01-28T08:46:03.040Z,987.22
2023-01-28T08:47:03.842Z,987.31
2023-01-28T08:48:03.805Z,987.19
2023-01-28T08:49:03.800Z,987.30
2023-01-28T08:50:03.685Z,987.25
2023-01-28T08:51:03.747Z,987.42
2023-01-28T08:52:03.681Z,987.33
2023-01-28T08:53:03.640Z,987.50
2023-01-28T08:54:03.681Z,987.30
2023-01-28T08:55:03.699Z,987.44
2023-01-28T08:56:03.628Z,987.28
2023-01-28T08:57:03.543Z,987.44
2023-01-28T08:58:03.402Z,987.39
2023-01-28T08:59:03.417Z,987.53
2023-01-28T09:00:03.329Z,987.41
2023-01-28T09:01:03.200Z,987.33
2023-01-28T09:02:03.277Z,987.39
2023-01-28T09:03:06.576Z,987.39
2023-01-28T09:04:03.237Z,987.44
2023-01-28T09:05:03.231Z,987.44
2023-01-28T09:06:03.153Z,987.50
2023-01-28T09:07:03.216Z,987.39
2023-01-28T09:08:03.118Z,987.52
2023-01-28T09:09:03.004Z,987.50
2023-01-28T09:10:03.010Z,987.47
2023-01-28T09:11:03.064Z,987.52
2023-01-28T09:12:03.066Z,987.47
2023-01-28T09:13:02.937Z,987.36
2023-01-28T09:14:02.927Z,987.36
2023-01-28T09:15:02.891Z,987.44
2023-01-28T09:16:02.977Z,987.44
2023-01-28T09:17:02.920Z,987.52
2023-01-28T09:18:02.928Z,987.64
2023-01-28T09:19:03.822Z,987.50
2023-01-28T09:20:03.798Z,987.50
2023-01-28T09:21:03.719Z,987.63
2023-01-28T09:22:03.609Z,987.55
2023-01-28T09:23:03.501Z,987.61
2023-01-28T09:24:03.567Z,987.72
2023-01-28T09:25:03.381Z,987.69
2023-01-28T09:26:03.410Z,987.52
2023-01-28T09:27:03.375Z,987.63
2023-01-28T09:28:03.260Z,987.61
2023-01-28T09:29:03.255Z,987.63
2023-01-28T09:30:03.155Z,987.52
2023-01-28T09:31:03.444Z,987.80
2023-01-28T09:32:03.611Z,987.69
2023-01-28T09:33:03.506Z,987.52
2023-01-28T09:34:03.526Z,987.63
2023-01-28T09:35:03.543Z,987.69
2023-01-28T09:36:03.525Z,987.63
2023-01-28T09:37:03.398Z,987.66
2023-01-28T09:38:03.351Z,987.69
2023-01-28T09:39:03.629Z,987.63
2023-01-28T09:40:03.227Z,987.58
2023-01-28T09:41:03.169Z,987.69
2023-01-28T09:42:03.114Z,987.63
2023-01-28T09:43:03.115Z,987.66
2023-01-28T09:44:02.876Z,987.74
2023-01-28T09:45:03.804Z,987.86
2023-01-28T09:46:03.755Z,987.74
2023-01-28T09:47:03.841Z,987.72
2023-01-28T09:48:03.705Z,987.80
2023-01-28T09:49:03.687Z,987.66
2023-01-28T09:50:03.538Z,987.69
2023-01-28T09:51:03.551Z,987.88
2023-01-28T09:52:03.588Z,987.80
2023-01-28T09:53:03.436Z,987.80
2023-01-28T09:54:03.403Z,987.74
2023-01-28T09:55:03.368Z,987.72
2023-01-28T09:56:03.368Z,987.88
2023-01-28T09:57:03.226Z,987.66
2023-01-28T09:58:03.151Z,987.77
2023-01-28T09:59:03.260Z,987.86
2023-01-28T10:00:03.113Z,987.93
2023-01-28T10:01:03.183Z,988.04
2023-01-28T10:02:03.121Z,987.93
2023-01-28T10:03:03.032Z,987.93
2023-01-28T10:04:03.109Z,987.88
2023-01-28T10:05:02.915Z,987.88
2023-01-28T10:06:03.840Z,987.83
2023-01-28T10:07:03.757Z,987.96
2023-01-28T10:08:03.752Z,987.83
2023-01-28T10:09:03.788Z,987.96
2023-01-28T10:10:03.656Z,988.02
2023-01-28T10:11:03.531Z,987.86
2023-01-28T10:12:03.595Z,987.83
2023-01-28T10:13:03.511Z,987.91
2023-01-28T10:14:03.386Z,988.02
2023-01-28T10:15:03.338Z,987.80
2023-01-28T10:16:03.266Z,988.10
2023-01-28T10:17:03.293Z,988.07
2023-01-28T10:18:18.147Z,988.10
2023-01-28T10:19:03.223Z,988.10
2023-01-28T10:20:03.055Z,988.05
2023-01-28T10:21:02.948Z,988.19
2023-01-28T10:22:02.980Z,988.02
2023-01-28T10:23:02.987Z,988.05
2023-01-28T10:24:03.000Z,988.08
2023-01-28T10:25:03.830Z,988.16
2023-01-28T10:26:03.778Z,988.08
2023-01-28T10:27:03.767Z,988.13
2023-01-28T10:28:03.681Z,988.16
2023-01-28T10:29:03.795Z,988.16
2023-01-28T10:30:03.458Z,988.11
2023-01-28T10:31:03.496Z,987.84
2023-01-28T10:32:03.344Z,987.97
2023-01-28T10:33:03.217Z,988.05
2023-01-28T10:34:03.167Z,988.24
2023-01-28T10:35:03.137Z,988.05
2023-01-28T10:36:02.951Z,988.22
2023-01-28T10:37:03.816Z,988.13
2023-01-28T10:38:03.903Z,988.08
2023-01-28T10:39:03.833Z,988.08
2023-01-28T10:40:03.894Z,988.08
2023-01-28T10:41:03.765Z,988.02
2023-01-28T10:42:03.742Z,988.16
2023-01-28T10:43:03.672Z,988.13
2023-01-28T10:44:03.623Z,988.13
2023-01-28T10:45:03.558Z,988.22
2023-01-28T10:46:03.609Z,988.13
2023-01-28T10:47:03.450Z,988.16
2023-01-28T10:48:03.341Z,988.13
2023-01-28T10:49:03.261Z,988.22
2023-01-28T10:50:03.157Z,988.08
2023-01-28T10:51:03.122Z,988.13
2023-01-28T10:52:03.027Z,988.22
2023-01-28T10:53:02.903Z,988.22
2023-01-28T10:54:03.927Z,988.19
2023-01-28T10:55:03.712Z,988.22
2023-01-28T10:56:03.674Z,988.16
2023-01-28T10:57:03.534Z,988.29
2023-01-28T10:58:03.427Z,988.22
2023-01-28T10:59:03.394Z,988.25
2023-01-28T11:00:03.341Z,988.22
2023-01-28T11:01:03.364Z,988.11
2023-01-28T11:02:03.265Z,988.32
2023-01-28T11:03:03.208Z,988.35
2023-01-28T11:04:03.292Z,988.35
2023-01-28T11:05:03.187Z,988.25
2023-01-28T11:06:03.121Z,988.25
2023-01-28T11:07:02.974Z,988.16
2023-01-28T11:08:02.975Z,988.35
2023-01-28T11:09:02.967Z,988.29
2023-01-28T11:10:02.965Z,988.19
2023-01-28T11:11:03.911Z,988.26
2023-01-28T11:12:03.749Z,988.25
2023-01-28T11:13:03.788Z,988.26
2023-01-28T11:14:03.684Z,988.11
2023-01-28T11:15:03.712Z,988.16
2023-01-28T11:16:03.599Z,988.22
2023-01-28T11:17:03.464Z,988.11
2023-01-28T11:18:03.377Z,988.13
2023-01-28T11:19:03.623Z,988.08
2023-01-28T11:20:03.450Z,988.13
2023-01-28T11:21:03.410Z,988.22
2023-01-28T11:22:03.396Z,988.22
2023-01-28T11:23:03.131Z,988.29
2023-01-28T11:24:03.266Z,988.13
2023-01-28T11:25:03.203Z,988.24
2023-01-28T11:26:03.232Z,988.24
2023-01-28T11:27:03.099Z,988.10
2023-01-28T11:28:03.084Z,988.10
2023-01-28T11:29:02.918Z,988.08
2023-01-28T11:30:02.985Z,988.02
2023-01-28T11:31:03.940Z,988.26
2023-01-28T11:32:03.880Z,988.21
2023-01-28T11:33:03.829Z,988.19
2023-01-28T11:34:03.787Z,988.13
2023-01-28T11:35:03.626Z,988.13
2023-01-28T11:36:03.631Z,988.19
2023-01-28T11:37:03.603Z,988.05
2023-01-28T11:38:03.492Z,988.05
2023-01-28T11:39:03.473Z,988.13
2023-01-28T11:40:03.479Z,988.07
2023-01-28T11:41:03.399Z,988.16
2023-01-28T11:42:03.259Z,988.02
2023-01-28T11:43:03.237Z,988.13
2023-01-28T11:44:03.318Z,988.02
2023-01-28T11:45:03.283Z,987.96
2023-01-28T11:46:05.633Z,987.96
2023-01-28T11:47:03.014Z,987.96
2023-01-28T11:48:03.072Z,988.18
2023-01-28T11:49:02.964Z,988.10
2023-01-28T11:50:03.005Z,988.04
2023-01-28T11:51:03.027Z,988.26
2023-01-28T11:52:03.850Z,987.99
2023-01-28T11:53:08.017Z,988.01
2023-01-28T11:54:03.992Z,988.26
2023-01-28T11:55:03.821Z,988.04
2023-01-28T11:56:03.765Z,988.10
2023-01-28T11:57:03.786Z,988.15
2023-01-28T11:58:03.694Z,988.21
2023-01-28T11:59:03.638Z,988.04
2023-01-28T12:00:03.493Z,988.10
2023-01-28T12:01:03.479Z,988.07
2023-01-28T12:02:03.472Z,988.10
2023-01-28T12:03:03.453Z,988.21
2023-01-28T12:04:03.478Z,988.21
2023-01-28T12:05:03.581Z,988.07
2023-01-28T12:06:03.370Z,988.13
2023-01-28T12:07:03.321Z,988.10
2023-01-28T12:08:03.230Z,988.15
2023-01-28T12:09:03.221Z,988.13
2023-01-28T12:10:03.175Z,988.18
2023-01-28T12:11:03.210Z,988.31
2023-01-28T12:12:05.251Z,988.21
2023-01-28T12:13:03.022Z,987.99
2023-01-28T12:14:03.061Z,988.18
2023-01-28T12:15:03.886Z,988.24
2023-01-28T12:16:03.973Z,988.01
2023-01-28T12:17:03.795Z,988.04
2023-01-28T12:18:03.841Z,988.07
2023-01-28T12:19:03.662Z,988.10
2023-01-28T12:20:03.674Z,987.99
2023-01-28T12:21:03.707Z,988.04
2023-01-28T12:22:03.623Z,988.04
2023-01-28T12:23:03.490Z,988.04
2023-01-28T12:24:03.544Z,988.01
2023-01-28T12:25:03.360Z,987.96
2023-01-28T12:26:03.291Z,988.10
2023-01-28T12:27:03.223Z,988.04
2023-01-28T12:28:03.043Z,988.10